Time;durP1;ratioP1;P1;durP2;ratioP2;P2;SDS_P1;SDS_P2;PMS_P1;PMS_P2;Temp;Humidity;BMP_temperature;BMP_pressure;BME280_temperature;BME280_humidity;BME280_pressure;Samples;Min_cycle;Max_cycle;Signal;HPM_P1;HPM_P2
2022/12/10 00:00:16;;;;;;;27.90;13.50;;;8.10;63.10;;;;;;5006508;28;20056;-75
2022/12/10 00:02:42;;;;;;;37.83;15.18;;;8.00;63.20;;;;;;5021497;28;20038;-77
2022/12/10 00:05:08;;;;;;;30.02;14.07;;;8.10;63.20;;;;;;5018855;28;20111;-76
2022/12/10 00:07:34;;;;;;;29.73;14.07;;;8.10;63.10;;;;;;5007880;28;20492;-77
2022/12/10 00:10:00;;;;;;;32.47;14.70;;;8.10;63.10;;;;;;5019284;28;20091;-77
2022/12/10 00:12:26;;;;;;;30.85;15.73;;;8.00;63.10;;;;;;5021507;28;20038;-77
2022/12/10 00:14:52;;;;;;;36.97;15.93;;;8.10;63.10;;;;;;5021886;28;20042;-77
2022/12/10 00:17:18;;;;;;;41.33;15.80;;;8.10;63.20;;;;;;5017697;28;20033;-77
2022/12/10 00:19:44;;;;;;;32.92;16.25;;;8.10;63.10;;;;;;5019846;28;20165;-75
2022/12/10 00:22:10;;;;;;;35.83;16.55;;;8.10;63.10;;;;;;5026096;28;20045;-76
2022/12/10 00:24:36;;;;;;;34.65;15.43;;;8.00;63.00;;;;;;5020164;28;20116;-76
2022/12/10 00:27:02;;;;;;;32.92;15.52;;;8.10;63.10;;;;;;5019515;28;20045;-76
2022/12/10 00:29:28;;;;;;;31.25;15.48;;;8.10;63.00;;;;;;5018666;28;20091;-76
2022/12/10 00:31:54;;;;;;;38.03;15.90;;;8.10;63.00;;;;;;5001436;28;20137;-76
2022/12/10 00:34:20;;;;;;;33.85;14.60;;;8.10;63.00;;;;;;5002553;28;20021;-76
2022/12/10 00:36:47;;;;;;;37.70;16.30;;;8.10;63.10;;;;;;5017752;28;20038;-76
2022/12/10 00:39:16;;;;;;;33.50;16.40;;;8.10;63.00;;;;;;5019641;28;20045;-75
2022/12/10 00:41:43;;;;;;;32.10;14.63;;;8.10;63.00;;;;;;5019967;28;20033;-76
2022/12/10 00:44:09;;;;;;;29.13;14.90;;;8.10;62.90;;;;;;5021846;28;20041;-75
2022/12/10 00:46:35;;;;;;;32.00;14.65;;;8.10;63.00;;;;;;5026795;28;20044;-76
2022/12/10 00:49:02;;;;;;;33.47;15.40;;;8.10;63.10;;;;;;5023329;28;20036;-76
2022/12/10 00:51:29;;;;;;;32.00;14.57;;;8.10;63.00;;;;;;5026379;28;20386;-76
2022/12/10 00:53:56;;;;;;;29.85;13.93;;;8.10;63.10;;;;;;5024980;28;20037;-76
2022/12/10 00:56:29;;;;;;;31.33;14.60;;;8.10;63.00;;;;;;5022534;28;20040;-76
2022/12/10 00:58:55;;;;;;;33.72;15.00;;;8.10;63.10;;;;;;5039606;28;20042;-76
2022/12/10 01:01:23;;;;;;;30.48;14.30;;;8.10;63.10;;;;;;5025635;28;20033;-75
2022/12/10 01:03:54;;;;;;;29.98;13.27;;;8.10;63.20;;;;;;5021406;28;20037;-75
2022/12/10 01:06:23;;;;;;;31.00;14.05;;;8.10;63.10;;;;;;5022444;28;20602;-76
2022/12/10 01:08:51;;;;;;;35.20;14.65;;;8.10;63.10;;;;;;5037080;28;20084;-77
2022/12/10 01:11:19;;;;;;;32.03;14.00;;;8.10;63.10;;;;;;5022590;28;20045;-76
2022/12/10 01:13:46;;;;;;;28.02;13.57;;;8.10;63.10;;;;;;5023778;28;20072;-75
2022/12/10 01:16:14;;;;;;;30.70;14.40;;;8.10;63.10;;;;;;5025934;28;20033;-76
2022/12/10 01:18:41;;;;;;;33.70;14.85;;;8.10;63.20;;;;;;5025505;28;20137;-75
2022/12/10 01:21:09;;;;;;;30.13;13.90;;;8.10;63.00;;;;;;5026609;28;20086;-74
2022/12/10 01:23:38;;;;;;;28.23;13.20;;;8.10;63.00;;;;;;5022209;28;20504;-75
2022/12/10 01:26:07;;;;;;;29.08;14.25;;;8.10;63.00;;;;;;5022259;28;20065;-75
2022/12/10 01:28:36;;;;;;;29.10;13.40;;;8.10;63.00;;;;;;5025433;28;20135;-76
2022/12/10 01:31:11;;;;;;;30.98;13.77;;;8.10;62.90;;;;;;5026343;28;20681;-75
2022/12/10 01:33:38;;;;;;;28.95;13.63;;;8.10;63.00;;;;;;5024166;28;20087;-75
2022/12/10 01:36:26;;;;;;;30.25;12.98;;;8.10;62.90;;;;;;5023244;28;20128;-75
2022/12/10 01:38:52;;;;;;;29.75;13.88;;;8.10;62.80;;;;;;5009258;28;20042;-74
2022/12/10 01:41:24;;;;;;;31.52;13.73;;;8.10;62.80;;;;;;5022967;28;20151;-75
2022/12/10 01:43:57;;;;;;;29.00;13.30;;;8.10;62.90;;;;;;5020600;28;20037;-74
2022/12/10 01:46:45;;;;;;;27.83;13.38;;;8.10;62.90;;;;;;5022518;28;20034;-76
2022/12/10 01:49:15;;;;;;;28.05;13.25;;;8.10;62.80;;;;;;5020732;28;20049;-76
2022/12/10 01:51:42;;;;;;;31.77;14.13;;;8.10;62.90;;;;;;5037446;28;20128;-76
2022/12/10 01:54:13;;;;;;;25.45;12.38;;;8.10;62.80;;;;;;5021517;28;20036;-75
2022/12/10 01:56:43;;;;;;;27.30;12.65;;;8.10;62.80;;;;;;5020612;28;20574;-75
2022/12/10 01:59:13;;;;;;;31.38;13.77;;;8.10;62.80;;;;;;5021507;28;20523;-75
2022/12/10 02:01:52;;;;;;;31.50;13.10;;;8.10;62.80;;;;;;5022226;28;20029;-75
2022/12/10 02:04:30;;;;;;;29.23;14.32;;;8.10;62.80;;;;;;5021090;28;20138;-75
2022/12/10 02:07:17;;;;;;;27.40;13.63;;;8.10;62.80;;;;;;5023159;28;20116;-76
2022/12/10 02:10:00;;;;;;;25.65;12.82;;;8.10;62.80;;;;;;5021755;28;20562;-76
2022/12/10 02:13:06;;;;;;;27.98;13.73;;;8.10;62.90;;;;;;5022272;28;20041;-76
2022/12/10 02:15:39;;;;;;;31.25;14.02;;;8.10;62.80;;;;;;5021132;28;20136;-76
2022/12/10 02:18:19;;;;;;;24.30;13.03;;;8.10;62.60;;;;;;5025132;28;20041;-76
2022/12/10 02:21:11;;;;;;;25.58;13.13;;;8.10;62.60;;;;;;5012494;28;20084;-75
2022/12/10 02:23:43;;;;;;;26.80;13.13;;;8.10;62.60;;;;;;5029561;28;20036;-76
2022/12/10 02:26:39;;;;;;;28.33;13.18;;;8.10;62.70;;;;;;5047163;28;20053;-77
2022/12/10 02:29:14;;;;;;;25.85;13.60;;;8.10;62.60;;;;;;5026103;28;20696;-76
2022/12/10 02:31:43;;;;;;;;;;;8.10;62.50;;;;;;5033010;28;20045;-76
2022/12/10 02:34:12;;;;;;;28.88;13.05;;;8.10;62.50;;;;;;5027795;28;19924;-76
2022/12/10 02:36:41;;;;;;;26.23;12.93;;;8.10;62.60;;;;;;5022414;28;20417;-76
2022/12/10 02:39:11;;;;;;;27.45;12.82;;;8.10;62.60;;;;;;5009902;28;20034;-77
2022/12/10 02:41:49;;;;;;;29.52;13.38;;;8.10;62.40;;;;;;5021778;28;20054;-76
2022/12/10 02:44:18;;;;;;;28.02;12.95;;;8.10;62.60;;;;;;5020148;28;20471;-76
2022/12/10 02:46:47;;;;;;;28.65;13.10;;;8.10;62.60;;;;;;5004908;28;20033;-76
2022/12/10 02:49:15;;;;;;;25.75;13.40;;;8.10;62.40;;;;;;5020685;28;20030;-76
2022/12/10 02:51:42;;;;;;;27.08;14.50;;;8.10;62.40;;;;;;5022591;28;20033;-77
2022/12/10 02:54:33;;;;;;;27.90;14.35;;;8.10;62.50;;;;;;5020517;28;20065;-76
2022/12/10 02:57:07;;;;;;;29.85;14.18;;;8.10;62.60;;;;;;5019669;28;20030;-76
2022/12/10 03:00:07;;;;;;;25.55;13.85;;;8.10;62.60;;;;;;5010822;28;20056;-77
2022/12/10 03:03:03;;;;;;;30.15;15.15;;;8.10;62.60;;;;;;5008644;28;20072;-76
2022/12/10 03:05:56;;;;;;;28.90;15.07;;;8.10;62.50;;;;;;5004241;28;20540;-77
2022/12/10 03:08:45;;;;;;;32.85;15.57;;;8.10;62.50;;;;;;5018522;28;20045;-77
2022/12/10 03:11:16;;;;;;;33.50;16.25;;;8.10;62.50;;;;;;5021543;28;20044;-77
2022/12/10 03:13:51;;;;;;;33.92;16.73;;;8.10;62.40;;;;;;5021755;28;20034;-77
2022/12/10 03:16:18;;;;;;;;;;;8.10;62.50;;;;;;5022079;28;20536;-77
2022/12/10 03:18:49;;;;;;;36.63;16.73;;;8.10;62.50;;;;;;5024958;28;19925;-77
2022/12/10 03:21:15;;;;;;;33.92;15.77;;;8.10;62.40;;;;;;5020256;28;20488;-77
2022/12/10 03:23:45;;;;;;;34.38;16.48;;;8.10;62.50;;;;;;5021039;28;20052;-76
2022/12/10 03:26:11;;;;;;;32.38;16.13;;;8.10;62.50;;;;;;5020525;28;20151;-77
2022/12/10 03:28:46;;;;;;;32.22;16.65;;;8.10;62.50;;;;;;5020929;28;20056;-77
2022/12/10 03:31:14;;;;;;;34.25;16.27;;;8.10;62.40;;;;;;5018912;28;20176;-77
2022/12/10 03:33:40;;;;;;;38.13;16.25;;;8.10;62.30;;;;;;5003490;28;20196;-77
2022/12/10 03:36:08;;;;;;;32.47;15.85;;;8.10;62.30;;;;;;5021288;28;20152;-78
2022/12/10 03:38:35;;;;;;;31.92;16.42;;;8.10;62.30;;;;;;5023808;28;20119;-77
2022/12/10 03:41:01;;;;;;;31.40;15.68;;;8.10;62.40;;;;;;5019933;28;20041;-77
2022/12/10 03:43:27;;;;;;;29.35;15.45;;;8.10;62.40;;;;;;5004903;28;20400;-77
2022/12/10 03:45:53;;;;;;;37.88;17.35;;;8.10;62.30;;;;;;5019915;28;20041;-76
2022/12/10 03:48:18;;;;;;;33.25;17.00;;;8.20;62.20;;;;;;5021044;28;20033;-77
2022/12/10 03:50:44;;;;;;;33.88;17.50;;;8.20;62.30;;;;;;5021037;28;20504;-77
2022/12/10 03:53:10;;;;;;;35.28;16.85;;;8.20;62.20;;;;;;5022925;28;20497;-77
2022/12/10 03:55:37;;;;;;;30.02;16.45;;;8.20;62.20;;;;;;5020007;28;20080;-80
2022/12/10 03:58:03;;;;;;;33.30;16.90;;;8.20;62.20;;;;;;5020268;28;20050;-79
2022/12/10 04:00:29;;;;;;;36.05;17.90;;;8.10;62.10;;;;;;5021651;28;20038;-78
2022/12/10 04:02:55;;;;;;;41.35;17.33;;;8.20;62.30;;;;;;5023120;28;20037;-78
2022/12/10 04:05:21;;;;;;;29.48;15.80;;;8.20;62.10;;;;;;5023730;28;20083;-77
2022/12/10 04:07:47;;;;;;;35.85;16.90;;;8.20;62.10;;;;;;5001792;28;20034;-77
2022/12/10 04:10:13;;;;;;;36.47;17.40;;;8.20;62.20;;;;;;5005492;28;20424;-77
2022/12/10 04:12:39;;;;;;;31.75;16.63;;;8.20;62.20;;;;;;5017368;28;20037;-77
2022/12/10 04:17:52;;;;;;;32.33;16.98;;;8.20;62.20;;;;;;5024497;28;20037;-79
2022/12/10 04:28:32;;;;;;;32.53;16.17;;;8.20;62.30;;;;;;5023270;28;20076;-78
2022/12/10 04:30:58;;;;;;;29.30;16.23;;;8.20;62.20;;;;;;5025370;28;20050;-78
2022/12/10 04:33:24;;;;;;;30.48;15.40;;;8.10;62.20;;;;;;5023004;28;20222;-78
2022/12/10 04:35:50;;;;;;;30.05;14.55;;;8.20;62.30;;;;;;5022647;28;20103;-77
2022/12/10 04:38:16;;;;;;;28.45;14.85;;;8.20;62.40;;;;;;5024355;28;20041;-77
2022/12/10 04:40:42;;;;;;;27.35;13.88;;;8.20;62.20;;;;;;5024020;28;20029;-77
2022/12/10 04:43:08;;;;;;;28.48;14.73;;;8.20;62.30;;;;;;5022519;28;20062;-77
2022/12/10 04:45:35;;;;;;;29.35;14.63;;;8.20;62.20;;;;;;5040341;28;20088;-76
2022/12/10 04:48:01;;;;;;;28.80;15.18;;;8.20;62.20;;;;;;5005881;28;20528;-77
2022/12/10 04:50:27;;;;;;;30.83;15.23;;;8.20;62.20;;;;;;5024892;28;20505;-77
2022/12/10 04:52:53;;;;;;;26.05;15.32;;;8.20;62.20;;;;;;5022204;28;20036;-77
2022/12/10 04:55:19;;;;;;;27.80;14.65;;;8.20;62.30;;;;;;5024155;28;20091;-77
2022/12/10 04:57:45;;;;;;;29.13;15.48;;;8.20;62.30;;;;;;5027118;28;20065;-77
2022/12/10 05:00:11;;;;;;;35.60;16.27;;;8.20;62.60;;;;;;5023469;28;20126;-77
2022/12/10 05:02:37;;;;;;;31.48;15.50;;;8.20;62.30;;;;;;5044688;28;20050;-77
2022/12/10 05:05:03;;;;;;;28.55;15.73;;;8.20;62.80;;;;;;5043266;28;20044;-77
2022/12/10 05:07:29;;;;;;;30.17;15.82;;;8.20;62.30;;;;;;5050814;28;20026;-76
2022/12/10 05:09:55;;;;;;;30.50;15.18;;;8.20;62.10;;;;;;5050680;28;20045;-77
2022/12/10 05:12:21;;;;;;;28.92;15.50;;;8.20;62.20;;;;;;5049941;28;20056;-78
2022/12/10 05:14:47;;;;;;;32.50;16.33;;;8.20;62.20;;;;;;5020848;28;20041;-76
2022/12/10 05:17:13;;;;;;;29.25;16.45;;;8.20;62.20;;;;;;5028419;28;20053;-77
2022/12/10 05:19:39;;;;;;;27.80;15.95;;;8.20;62.10;;;;;;5025115;28;20037;-77
2022/12/10 05:24:49;;;;;;;35.92;17.10;;;8.20;62.10;;;;;;5024189;28;20053;-78
2022/12/10 05:27:15;;;;;;;34.03;17.42;;;8.20;62.20;;;;;;5024063;28;20065;-78
2022/12/10 05:29:42;;;;;;;34.30;17.38;;;8.20;62.20;;;;;;5019768;28;20088;-78
2022/12/10 05:32:08;;;;;;;37.47;17.73;;;8.20;62.20;;;;;;5023381;28;20033;-78
2022/12/10 05:34:34;;;;;;;34.85;17.70;;;8.20;62.20;;;;;;5023189;28;20488;-77
2022/12/10 05:37:00;;;;;;;32.72;17.30;;;8.20;62.30;;;;;;5025269;28;20037;-78
2022/12/10 05:39:26;;;;;;;35.95;18.17;;;8.20;62.30;;;;;;5025292;28;20084;-78
2022/12/10 05:41:52;;;;;;;35.92;18.30;;;8.30;62.20;;;;;;5023576;28;20091;-78
2022/12/10 05:44:18;;;;;;;35.78;18.85;;;8.20;62.00;;;;;;5021986;28;20033;-77
2022/12/10 05:46:43;;;;;;;39.40;19.00;;;8.20;62.00;;;;;;5004792;28;20095;-77
2022/12/10 05:49:09;;;;;;;40.33;19.10;;;8.30;62.10;;;;;;5024263;28;20037;-77
2022/12/10 05:51:37;;;;;;;38.45;19.55;;;8.20;62.20;;;;;;5023112;28;20030;-78
2022/12/10 05:54:05;;;;;;;40.10;19.63;;;8.20;62.20;;;;;;5026428;28;20393;-78
2022/12/10 05:56:31;;;;;;;38.78;18.65;;;8.20;62.20;;;;;;5019900;28;20125;-78
2022/12/10 05:59:00;;;;;;;41.38;20.05;;;8.20;62.20;;;;;;5020793;28;20026;-78
2022/12/10 06:01:29;;;;;;;40.03;19.08;;;8.20;62.20;;;;;;5024507;28;20029;-78
2022/12/10 06:03:57;;;;;;;38.08;19.42;;;8.20;62.20;;;;;;5022909;28;20037;-77
2022/12/10 06:06:25;;;;;;;37.13;18.67;;;8.20;62.10;;;;;;5021525;28;20035;-77
2022/12/10 06:08:52;;;;;;;39.90;19.23;;;8.20;62.10;;;;;;5022235;28;20520;-77
2022/12/10 06:11:18;;;;;;;39.58;20.35;;;8.30;62.20;;;;;;5022095;28;20026;-78
2022/12/10 06:13:44;;;;;;;42.72;19.15;;;8.30;62.20;;;;;;5023845;28;20112;-79
2022/12/10 06:16:15;;;;;;;40.50;19.38;;;8.20;62.00;;;;;;5025047;28;20153;-78
2022/12/10 06:18:42;;;;;;;39.30;18.80;;;8.30;62.10;;;;;;5022929;28;20052;-77
2022/12/10 06:21:10;;;;;;;37.83;19.35;;;8.30;62.20;;;;;;5008886;28;20558;-76
2022/12/10 06:23:38;;;;;;;38.25;18.10;;;8.20;62.10;;;;;;5020230;28;20029;-77
2022/12/10 06:26:12;;;;;;;36.90;18.25;;;8.30;62.10;;;;;;5021345;28;20613;-79
2022/12/10 06:28:39;;;;;;;40.78;18.63;;;8.30;62.10;;;;;;5025700;28;20049;-76
2022/12/10 06:31:06;;;;;;;36.40;19.02;;;8.30;62.20;;;;;;5025038;28;20061;-78
2022/12/10 06:33:32;;;;;;;42.95;19.35;;;8.30;62.30;;;;;;5024614;28;20044;-78
2022/12/10 06:35:58;;;;;;;37.72;18.42;;;8.30;62.30;;;;;;5023388;28;20512;-77
2022/12/10 06:38:24;;;;;;;41.53;18.40;;;8.30;62.40;;;;;;5022107;28;20537;-79
2022/12/10 06:40:51;;;;;;;38.92;17.20;;;8.30;62.20;;;;;;5023564;28;20033;-80
2022/12/10 06:43:17;;;;;;;41.50;17.92;;;8.30;62.20;;;;;;4992897;28;20034;-78
2022/12/10 06:45:43;;;;;;;38.35;17.65;;;8.30;62.10;;;;;;5021149;28;20029;-80
2022/12/10 06:48:09;;;;;;;37.03;18.15;;;8.30;62.00;;;;;;5021114;28;20038;-78
2022/12/10 06:50:35;;;;;;;38.70;16.92;;;8.30;62.10;;;;;;5022968;28;20054;-78
2022/12/10 06:53:02;;;;;;;43.80;17.85;;;8.30;61.90;;;;;;5024201;28;20037;-78
2022/12/10 06:55:29;;;;;;;38.33;16.92;;;8.30;61.90;;;;;;5023571;28;20056;-78
2022/12/10 06:57:55;;;;;;;39.88;18.90;;;8.30;62.00;;;;;;5024686;28;20033;-77
2022/12/10 07:00:21;;;;;;;36.90;16.50;;;8.30;61.90;;;;;;5021866;28;20037;-82
2022/12/10 07:02:48;;;;;;;35.88;16.60;;;8.30;61.70;;;;;;5022286;28;20029;-79
2022/12/10 07:05:14;;;;;;;36.58;16.70;;;8.30;61.80;;;;;;5023016;28;20025;-79
2022/12/10 07:07:40;;;;;;;39.90;17.08;;;8.30;61.90;;;;;;5025107;28;20025;-79
2022/12/10 07:10:06;;;;;;;35.72;17.15;;;8.40;61.90;;;;;;5021252;28;20029;-79
2022/12/10 07:12:32;;;;;;;39.38;16.98;;;8.30;61.90;;;;;;5022006;28;20033;-79
2022/12/10 07:14:58;;;;;;;36.65;16.17;;;8.30;62.00;;;;;;5022019;28;20119;-77
2022/12/10 07:17:24;;;;;;;37.25;15.95;;;8.40;62.00;;;;;;5024318;28;20033;-79
2022/12/10 07:19:50;;;;;;;35.30;16.13;;;8.40;62.10;;;;;;5004987;28;20040;-78
2022/12/10 07:22:17;;;;;;;36.88;16.65;;;8.40;62.30;;;;;;5021636;28;20042;-78
2022/12/10 07:24:43;;;;;;;36.20;16.73;;;8.40;62.20;;;;;;5022795;28;20033;-78
2022/12/10 07:27:09;;;;;;;34.03;15.20;;;8.40;62.40;;;;;;5020827;28;20052;-78
2022/12/10 07:29:35;;;;;;;34.40;16.00;;;8.40;62.40;;;;;;5020123;28;20029;-79
2022/12/10 07:32:01;;;;;;;39.83;16.92;;;8.40;62.30;;;;;;5020166;28;20416;-80
2022/12/10 07:34:27;;;;;;;41.65;16.75;;;8.40;62.30;;;;;;5020903;28;20040;-79
2022/12/10 07:36:54;;;;;;;37.70;16.50;;;8.40;62.20;;;;;;5021505;28;20029;-82
2022/12/10 07:39:20;;;;;;;37.38;16.92;;;8.50;62.30;;;;;;5039811;28;20104;-79
2022/12/10 07:41:52;;;;;;;36.65;15.95;;;8.50;62.40;;;;;;5014818;28;20034;-79
2022/12/10 07:44:24;;;;;;;36.72;15.85;;;8.50;62.30;;;;;;5027896;28;20067;-81
2022/12/10 07:46:51;;;;;;;39.92;16.75;;;8.50;62.50;;;;;;5030588;28;20056;-79
2022/12/10 07:49:18;;;;;;;42.03;17.10;;;8.50;62.50;;;;;;5046579;28;20016;-80
2022/12/10 07:51:45;;;;;;;37.05;15.93;;;8.50;62.40;;;;;;5019058;28;20030;-79
2022/12/10 07:54:12;;;;;;;39.97;17.52;;;8.50;62.40;;;;;;5051955;28;20033;-82
2022/12/10 07:56:37;;;;;;;38.75;16.55;;;8.50;62.30;;;;;;5055642;28;20053;-78
2022/12/10 07:59:03;;;;;;;38.83;17.20;;;8.50;62.20;;;;;;5042341;28;20048;-79
2022/12/10 08:01:29;;;;;;;41.60;17.80;;;8.60;62.20;;;;;;5033621;28;20029;-79
2022/12/10 08:03:56;;;;;;;39.92;17.25;;;8.60;62.30;;;;;;5028208;28;20049;-78
2022/12/10 08:06:24;;;;;;;43.50;18.10;;;8.60;62.40;;;;;;5029356;28;20044;-79
2022/12/10 08:08:50;;;;;;;42.50;18.48;;;8.60;62.80;;;;;;5028642;28;20037;-77
2022/12/10 08:11:18;;;;;;;48.13;20.30;;;8.60;63.00;;;;;;5031637;28;20030;-74
2022/12/10 08:13:46;;;;;;;51.38;22.23;;;8.60;63.70;;;;;;5011711;28;20025;-76
2022/12/10 08:16:18;;;;;;;60.50;24.10;;;8.40;62.60;;;;;;5028750;28;20049;-76
2022/12/10 08:18:45;;;;;;;60.83;24.80;;;8.20;62.10;;;;;;5029539;28;20037;-76
2022/12/10 08:21:14;;;;;;;67.03;26.95;;;8.10;62.10;;;;;;5030004;28;20492;-76
2022/12/10 08:23:41;;;;;;;58.53;24.88;;;7.90;62.00;;;;;;5007913;28;20164;-76
2022/12/10 08:26:11;;;;;;;56.92;24.13;;;7.90;62.60;;;;;;5028137;28;20037;-76
2022/12/10 08:28:37;;;;;;;51.65;22.80;;;7.90;63.70;;;;;;5027018;28;20050;-76
2022/12/10 08:31:04;;;;;;;47.45;20.25;;;8.00;65.00;;;;;;5013202;28;20052;-77
2022/12/10 08:33:34;;;;;;;45.70;19.40;;;8.10;66.00;;;;;;5029961;28;20038;-76
2022/12/10 08:36:00;;;;;;;45.53;18.67;;;8.10;66.50;;;;;;5026921;28;20045;-77
2022/12/10 08:38:30;;;;;;;45.25;18.75;;;8.20;66.70;;;;;;5013346;28;20095;-77
2022/12/10 08:40:56;;;;;;;46.40;19.05;;;8.30;66.90;;;;;;5030785;28;20033;-76
2022/12/10 08:43:23;;;;;;;45.25;17.67;;;8.30;67.10;;;;;;5029050;28;20060;-77
2022/12/10 08:45:48;;;;;;;45.53;18.30;;;8.30;67.10;;;;;;5026988;28;20393;-76
2022/12/10 08:48:15;;;;;;;39.55;17.00;;;8.40;67.10;;;;;;5030491;28;20088;-76
2022/12/10 08:50:40;;;;;;;41.78;18.58;;;8.40;67.30;;;;;;5030833;28;20690;-78
2022/12/10 08:53:07;;;;;;;41.83;18.52;;;8.50;67.30;;;;;;5029542;28;20067;-77
2022/12/10 08:55:37;;;;;;;42.63;18.90;;;8.50;67.50;;;;;;5020945;28;20056;-79
2022/12/10 08:58:03;;;;;;;42.75;18.38;;;8.60;67.60;;;;;;5035240;28;20071;-78
2022/12/10 09:00:29;;;;;;;44.40;19.05;;;8.60;67.90;;;;;;5021407;28;20064;-80
2022/12/10 09:02:55;;;;;;;47.65;19.40;;;8.70;68.00;;;;;;5023980;28;20081;-80
2022/12/10 09:05:21;;;;;;;40.65;18.13;;;8.70;68.30;;;;;;5019360;28;20029;-79
2022/12/10 09:07:47;;;;;;;49.28;18.60;;;8.70;68.30;;;;;;5009823;28;20033;-78
2022/12/10 09:10:13;;;;;;;43.60;17.70;;;8.80;68.50;;;;;;5024277;28;20096;-78
2022/12/10 09:12:39;;;;;;;39.65;18.00;;;8.80;68.50;;;;;;5022275;28;20038;-78
2022/12/10 09:15:08;;;;;;;41.85;18.33;;;8.80;68.50;;;;;;5030570;28;20034;-77
2022/12/10 09:17:35;;;;;;;45.40;18.38;;;8.90;68.70;;;;;;5034808;28;20117;-82
2022/12/10 09:20:03;;;;;;;42.35;17.75;;;8.90;68.60;;;;;;5016010;28;20136;-83
2022/12/10 09:22:30;;;;;;;45.08;18.30;;;8.90;68.50;;;;;;5034645;28;20060;-83
2022/12/10 09:24:56;;;;;;;42.05;17.85;;;8.90;68.50;;;;;;5033678;28;20417;-85
2022/12/10 09:27:22;;;;;;;41.35;19.13;;;9.00;68.60;;;;;;5033855;28;20053;-84
2022/12/10 09:29:48;;;;;;;42.15;18.40;;;9.00;69.00;;;;;;5013748;28;20037;-84
2022/12/10 09:32:14;;;;;;;41.60;18.25;;;9.00;68.10;;;;;;5048557;28;20034;-85
2022/12/10 09:34:40;;;;;;;42.38;17.30;;;9.00;67.80;;;;;;5039056;28;20045;-86
2022/12/10 09:37:06;;;;;;;37.50;16.98;;;9.00;67.40;;;;;;5033712;28;20580;-84
2022/12/10 09:39:32;;;;;;;40.60;17.77;;;9.00;67.00;;;;;;5011483;28;20076;-88
2022/12/10 09:42:46;;;;;;;38.95;17.83;;;9.00;66.80;;;;;;5017730;28;20034;-85
2022/12/10 09:45:29;;;;;;;41.55;18.77;;;9.00;66.80;;;;;;5007413;28;20056;-85
2022/12/10 09:48:20;;;;;;;38.35;16.88;;;9.10;66.50;;;;;;5014122;28;20037;-85
2022/12/10 09:51:11;;;;;;;40.40;18.35;;;9.00;66.50;;;;;;5027828;28;20048;-81
2022/12/10 09:53:38;;;;;;;43.08;17.10;;;9.10;66.40;;;;;;5023805;28;20038;-87
2022/12/10 09:56:05;;;;;;;39.15;17.50;;;9.00;66.50;;;;;;5022641;28;20041;-82
2022/12/10 09:58:31;;;;;;;37.72;17.35;;;9.10;66.40;;;;;;5021503;28;20060;-78
2022/12/10 10:01:05;;;;;;;41.97;18.40;;;9.00;66.30;;;;;;5024801;28;20034;-78
2022/12/10 10:03:37;;;;;;;39.85;18.00;;;9.10;66.40;;;;;;5023427;28;20179;-84
2022/12/10 10:06:03;;;;;;;39.78;16.63;;;9.10;66.50;;;;;;5022206;28;20053;-78
2022/12/10 10:08:36;;;;;;;38.33;16.75;;;9.10;66.70;;;;;;5020879;28;20045;-75
2022/12/10 10:11:04;;;;;;;39.47;17.77;;;9.00;66.60;;;;;;5021087;28;20069;-76
2022/12/10 10:13:47;;;;;;;40.40;17.67;;;9.10;66.70;;;;;;5022768;28;20064;-75
2022/12/10 10:16:19;;;;;;;38.92;17.65;;;9.10;66.70;;;;;;4994047;28;20041;-75
2022/12/10 10:19:13;;;;;;;35.08;15.93;;;9.10;66.70;;;;;;5021555;28;20532;-76
2022/12/10 10:21:44;;;;;;;37.08;16.38;;;9.10;67.10;;;;;;5023112;28;20087;-76
2022/12/10 10:24:41;;;;;;;35.72;16.40;;;9.10;66.60;;;;;;5036265;28;20139;-79
2022/12/10 10:27:27;;;;;;;41.47;16.92;;;9.10;66.50;;;;;;5004494;28;20127;-78
2022/12/10 10:29:57;;;;;;;40.97;17.15;;;9.10;66.50;;;;;;5023883;28;20033;-76
2022/12/10 10:32:54;;;;;;;37.03;15.73;;;9.10;66.50;;;;;;5022391;28;20127;-77
2022/12/10 10:35:33;;;;;;;40.85;18.23;;;9.10;66.20;;;;;;5024585;28;20110;-77
2022/12/10 10:38:05;;;;;;;40.03;16.58;;;9.10;66.20;;;;;;5039366;28;20122;-74
2022/12/10 10:40:42;;;;;;;40.00;16.10;;;9.10;66.20;;;;;;5048882;28;20041;-75
2022/12/10 10:43:19;;;;;;;37.40;16.30;;;9.10;66.30;;;;;;5033281;28;20033;-74
2022/12/10 10:45:53;;;;;;;41.15;17.35;;;9.10;66.40;;;;;;5049072;28;20037;-77
2022/12/10 10:48:22;;;;;;;40.67;16.60;;;9.10;66.50;;;;;;5033673;28;20033;-78
2022/12/10 10:50:53;;;;;;;39.83;16.60;;;9.10;66.70;;;;;;5026624;28;20084;-76
2022/12/10 10:53:30;;;;;;;42.72;18.23;;;9.10;66.70;;;;;;5027583;28;20033;-76
2022/12/10 10:56:04;;;;;;;42.42;17.08;;;9.10;66.70;;;;;;5026337;28;20119;-76
2022/12/10 10:58:30;;;;;;;37.03;17.48;;;9.10;66.50;;;;;;5009623;28;20040;-76
2022/12/10 11:01:07;;;;;;;39.92;17.20;;;9.10;66.50;;;;;;5023902;28;20501;-77
2022/12/10 11:03:36;;;;;;;43.38;17.48;;;9.10;66.50;;;;;;5022203;28;20029;-77
2022/12/10 11:06:07;;;;;;;36.03;16.98;;;9.10;66.50;;;;;;5020518;28;20041;-76
2022/12/10 11:08:38;;;;;;;37.95;16.58;;;9.10;66.40;;;;;;5021802;28;20402;-76
2022/12/10 11:11:10;;;;;;;32.55;15.43;;;9.10;66.40;;;;;;5022081;28;20034;-77
2022/12/10 11:13:37;;;;;;;34.38;15.75;;;9.10;66.40;;;;;;5020903;28;20036;-76
2022/12/10 11:16:22;;;;;;;33.88;15.93;;;9.10;66.30;;;;;;5021737;28;20047;-79
2022/12/10 11:19:04;;;;;;;37.03;16.17;;;9.10;66.40;;;;;;5018684;28;20433;-76
2022/12/10 11:21:34;;;;;;;37.25;16.00;;;9.10;66.40;;;;;;5037112;28;20125;-77
2022/12/10 11:24:09;;;;;;;37.50;16.02;;;9.10;66.20;;;;;;5020625;28;20064;-76
2022/12/10 11:27:04;;;;;;;35.03;16.37;;;9.10;66.20;;;;;;5020927;28;20041;-77
2022/12/10 11:29:58;;;;;;;32.75;15.52;;;9.10;66.40;;;;;;5021150;28;20284;-76
2022/12/10 11:32:34;;;;;;;36.53;15.98;;;9.10;66.10;;;;;;5013277;28;20056;-76
2022/12/10 11:35:21;;;;;;;34.65;15.35;;;9.10;66.10;;;;;;5021885;28;20036;-76
2022/12/10 11:37:53;;;;;;;33.28;14.95;;;9.10;66.20;;;;;;5021207;28;20115;-76
2022/12/10 11:40:18;;;;;;;36.08;17.13;;;9.10;66.30;;;;;;5024431;28;20034;-78
2022/12/10 11:43:05;;;;;;;34.78;15.50;;;9.10;66.30;;;;;;5022626;28;20075;-77
2022/12/10 11:45:51;;;;;;;34.65;15.45;;;9.10;66.30;;;;;;5020315;28;20072;-77
2022/12/10 11:48:41;;;;;;;37.42;16.05;;;9.10;66.20;;;;;;5018742;28;20041;-77
2022/12/10 11:51:37;;;;;;;37.25;16.17;;;9.10;66.30;;;;;;5019657;28;20045;-76
2022/12/10 11:54:47;;;;;;;34.67;15.75;;;9.10;66.00;;;;;;5021029;28;20044;-81
2022/12/10 11:57:30;;;;;;;31.33;14.85;;;9.10;66.00;;;;;;5025736;28;20046;-84
2022/12/10 12:00:22;;;;;;;37.25;15.95;;;9.10;65.90;;;;;;5024223;28;20128;-76
2022/12/10 12:03:15;;;;;;;35.88;14.98;;;9.10;66.00;;;;;;5029180;28;20038;-77
2022/12/10 12:05:53;;;;;;;33.70;15.50;;;9.10;66.10;;;;;;5027397;28;20088;-77
2022/12/10 12:08:41;;;;;;;32.97;14.93;;;9.10;65.90;;;;;;5008186;28;20045;-74
2022/12/10 12:11:30;;;;;;;30.55;14.32;;;9.10;66.00;;;;;;5025466;28;20095;-75
2022/12/10 12:14:42;;;;;;;37.08;14.88;;;9.10;66.20;;;;;;5010171;28;20030;-76
2022/12/10 12:17:16;;;;;;;33.85;14.68;;;9.10;66.80;;;;;;4992183;28;20041;-79
2022/12/10 12:19:56;;;;;;;37.28;15.80;;;9.10;68.10;;;;;;5021147;28;20025;-79
2022/12/10 12:22:37;;;;;;;34.15;14.63;;;9.20;68.10;;;;;;5022744;28;20088;-81
2022/12/10 12:25:30;;;;;;;37.33;15.10;;;9.20;68.50;;;;;;5001871;28;20037;-81
2022/12/10 12:28:10;;;;;;;34.08;14.05;;;9.20;69.00;;;;;;5002826;28;20095;-81
2022/12/10 12:30:39;;;;;;;30.70;14.23;;;9.20;69.60;;;;;;4994670;28;20254;-79
2022/12/10 12:33:11;;;;;;;34.78;15.88;;;9.20;70.10;;;;;;5008371;28;20064;-78
2022/12/10 12:35:49;;;;;;;36.30;15.18;;;9.20;70.40;;;;;;4999756;28;20041;-83
2022/12/10 12:38:35;;;;;;;32.65;14.48;;;9.20;70.60;;;;;;5008548;28;20045;-79
2022/12/10 12:41:30;;;;;;;34.38;15.65;;;9.30;70.60;;;;;;5024918;28;20041;-82
2022/12/10 12:44:09;;;;;;;34.65;14.95;;;9.30;70.90;;;;;;5023131;28;20501;-86
2022/12/10 12:46:47;;;;;;;34.30;15.73;;;9.30;71.20;;;;;;5022690;28;20509;-87
2022/12/10 12:49:32;;;;;;;31.83;14.30;;;9.30;71.20;;;;;;5012603;28;20504;-80
2022/12/10 12:52:17;;;;;;;37.57;16.17;;;9.30;71.30;;;;;;5008395;28;20084;-78
2022/12/10 12:54:46;;;;;;;41.53;16.90;;;9.30;71.30;;;;;;4991100;28;20808;-78
2022/12/10 12:57:31;;;;;;;34.58;15.80;;;9.30;70.60;;;;;;5003565;28;20033;-78
2022/12/10 13:00:03;;;;;;;33.22;16.25;;;9.30;70.00;;;;;;5008428;28;20045;-77
2022/12/10 13:02:54;;;;;;;32.42;15.65;;;9.30;69.60;;;;;;4994001;28;20117;-77
2022/12/10 13:05:32;;;;;;;32.67;16.13;;;9.30;69.00;;;;;;4992673;28;20029;-78
2022/12/10 13:08:20;;;;;;;34.38;15.13;;;9.30;68.40;;;;;;5006479;28;20036;-78
2022/12/10 13:10:58;;;;;;;30.67;15.25;;;9.30;68.10;;;;;;5024022;28;20038;-78
2022/12/10 13:13:36;;;;;;;30.90;15.02;;;9.30;68.00;;;;;;5011677;28;20596;-79